Time;durP1;ratioP1;P1;durP2;ratioP2;P2;SDS_P1;SDS_P2;PMS_P1;PMS_P2;Temp;Humidity;BMP_temperature;BMP_pressure;BME280_temperature;BME280_humidity;BME280_pressure;Samples;Min_cycle;Max_cycle;Signal;HPM_P1;HPM_P2
2024/04/07 00:00:43;;;;;;;4.13;2.40;;;;;;;;;;767407;182;904338;-68
2024/04/07 00:03:09;;;;;;;6.53;3.40;;;;;;;;;;765574;181;831517;-68
2024/04/07 00:05:35;;;;;;;7.73;3.20;;;;;;;;;;764456;182;842606;-68
2024/04/07 00:08:01;;;;;;;5.50;3.50;;;;;;;;;;768477;181;1125716;-67
2024/04/07 00:10:26;;;;;;;4.90;2.40;;;;;;;;;;762626;181;840799;-68
2024/04/07 00:12:52;;;;;;;4.47;2.50;;;;;;;;;;763589;181;920384;-67
2024/04/07 00:15:19;;;;;;;6.90;4.10;;;;;;;;;;767346;181;715625;-67
2024/04/07 00:17:44;;;;;;;6.80;3.00;;;;;;;;;;766185;181;859751;-68
2024/04/07 00:20:11;;;;;;;6.20;3.77;;;;;;;;;;767023;181;650870;-66
2024/04/07 00:22:36;;;;;;;4.60;2.60;;;;;;;;;;768152;181;833890;-68
2024/04/07 00:25:03;;;;;;;5.87;3.30;;;;;;;;;;771577;179;758715;-68
2024/04/07 00:27:27;;;;;;;6.17;3.00;;;;;;;;;;767448;180;912617;-68
2024/04/07 00:29:53;;;;;;;3.50;2.30;;;;;;;;;;764455;181;817352;-67
2024/04/07 00:32:19;;;;;;;4.63;2.70;;;;;;;;;;772436;180;912493;-68
2024/04/07 00:34:48;;;;;;;3.80;2.90;;;;;;;;;;763843;179;791446;-68
2024/04/07 00:37:15;;;;;;;5.50;2.80;;;;;;;;;;767422;181;812267;-67
2024/04/07 00:39:40;;;;;;;4.50;2.80;;;;;;;;;;768226;181;910495;-66
2024/04/07 00:42:06;;;;;;;5.53;2.83;;;;;;;;;;769832;181;614508;-68
2024/04/07 00:44:31;;;;;;;10.43;3.37;;;;;;;;;;768076;181;917523;-69
2024/04/07 00:46:57;;;;;;;8.23;4.10;;;;;;;;;;767160;181;813573;-66
2024/04/07 00:49:23;;;;;;;4.03;2.53;;;;;;;;;;769560;182;626878;-68
2024/04/07 00:51:49;;;;;;;5.47;2.60;;;;;;;;;;767205;181;818352;-67
2024/04/07 00:54:15;;;;;;;5.33;2.77;;;;;;;;;;762300;181;918221;-68
2024/04/07 00:56:41;;;;;;;5.77;3.20;;;;;;;;;;772584;181;923695;-68
2024/04/07 00:59:07;;;;;;;6.90;2.20;;;;;;;;;;767646;181;828324;-66
2024/04/07 01:01:32;;;;;;;3.70;2.70;;;;;;;;;;771198;181;770169;-68
2024/04/07 01:03:58;;;;;;;5.90;2.20;;;;;;;;;;774443;181;613710;-66
2024/04/07 01:06:24;;;;;;;6.30;3.10;;;;;;;;;;768786;181;821377;-67
2024/04/07 01:08:50;;;;;;;5.37;3.00;;;;;;;;;;769319;181;808483;-67
2024/04/07 01:11:16;;;;;;;3.93;2.93;;;;;;;;;;771624;181;633841;-67
2024/04/07 01:13:41;;;;;;;8.50;2.70;;;;;;;;;;767748;181;712890;-68
2024/04/07 01:16:07;;;;;;;9.50;4.03;;;;;;;;;;763688;182;934576;-68
2024/04/07 01:18:33;;;;;;;4.10;2.97;;;;;;;;;;765155;180;817353;-66
2024/04/07 01:20:59;;;;;;;6.32;3.53;;;;;;;;;;766008;181;903852;-67
2024/04/07 01:23:25;;;;;;;6.70;3.83;;;;;;;;;;768055;181;815326;-68
2024/04/07 01:25:51;;;;;;;4.60;2.90;;;;;;;;;;766226;181;716772;-68
2024/04/07 01:28:17;;;;;;;5.17;2.90;;;;;;;;;;769288;181;951766;-68
2024/04/07 01:30:42;;;;;;;3.90;2.73;;;;;;;;;;767652;181;826000;-68
2024/04/07 01:33:10;;;;;;;3.50;2.37;;;;;;;;;;764475;181;909970;-68
2024/04/07 01:35:34;;;;;;;3.70;2.77;;;;;;;;;;772988;180;641881;-67
2024/04/07 01:38:01;;;;;;;7.10;3.20;;;;;;;;;;769440;179;782199;-66
2024/04/07 01:40:26;;;;;;;5.65;3.20;;;;;;;;;;764986;180;906650;-67
2024/04/07 01:42:52;;;;;;;9.57;3.53;;;;;;;;;;766467;180;911913;-68
2024/04/07 01:45:18;;;;;;;5.20;2.97;;;;;;;;;;766806;180;863521;-67
2024/04/07 01:47:44;;;;;;;5.10;3.10;;;;;;;;;;766127;182;918849;-67
2024/04/07 01:50:09;;;;;;;9.40;4.10;;;;;;;;;;766514;181;932864;-67
2024/04/07 01:52:35;;;;;;;5.47;3.50;;;;;;;;;;769288;181;810504;-67
2024/04/07 01:55:01;;;;;;;4.20;3.00;;;;;;;;;;766638;181;912345;-68
2024/04/07 01:57:27;;;;;;;3.17;2.20;;;;;;;;;;760777;180;913438;-67
2024/04/07 01:59:53;;;;;;;3.90;2.62;;;;;;;;;;772350;181;911436;-67
2024/04/07 02:02:19;;;;;;;4.30;2.83;;;;;;;;;;766769;181;920201;-68
2024/04/07 02:04:44;;;;;;;6.70;2.80;;;;;;;;;;765819;182;896197;-68
2024/04/07 02:07:10;;;;;;;5.10;1.80;;;;;;;;;;770765;181;910865;-67
2024/04/07 02:09:36;;;;;;;4.93;2.77;;;;;;;;;;768291;180;872088;-68
2024/04/07 02:12:02;;;;;;;5.03;3.33;;;;;;;;;;768197;181;906849;-68
2024/04/07 02:14:28;;;;;;;5.93;2.90;;;;;;;;;;770824;181;855831;-67
2024/04/07 02:16:53;;;;;;;5.83;3.30;;;;;;;;;;766789;181;911960;-67
2024/04/07 02:19:19;;;;;;;4.97;2.97;;;;;;;;;;768062;181;921271;-67
2024/04/07 02:21:45;;;;;;;4.83;2.90;;;;;;;;;;764229;180;923227;-68
2024/04/07 02:24:11;;;;;;;3.60;2.60;;;;;;;;;;766488;181;901641;-67
2024/04/07 02:26:37;;;;;;;5.73;3.07;;;;;;;;;;766281;180;919885;-66
2024/04/07 02:29:03;;;;;;;4.63;2.83;;;;;;;;;;765606;181;916583;-68
2024/04/07 02:31:28;;;;;;;7.10;3.27;;;;;;;;;;767942;181;902508;-67
2024/04/07 02:33:54;;;;;;;6.30;3.40;;;;;;;;;;765780;182;808632;-68
2024/04/07 02:36:20;;;;;;;4.40;2.83;;;;;;;;;;767960;181;885158;-69
2024/04/07 02:38:47;;;;;;;4.37;2.70;;;;;;;;;;768562;181;908610;-68
2024/04/07 02:41:12;;;;;;;5.67;4.23;;;;;;;;;;762925;181;818778;-68
2024/04/07 02:43:38;;;;;;;6.07;3.23;;;;;;;;;;765730;179;1019668;-68
2024/04/07 02:48:35;;;;;;;5.83;3.20;;;;;;;;;;772515;180;822689;-67
2024/04/07 02:51:01;;;;;;;5.13;2.53;;;;;;;;;;770000;181;712929;-68
2024/04/07 02:53:28;;;;;;;5.62;3.45;;;;;;;;;;767584;181;756878;-68
2024/04/07 02:55:53;;;;;;;5.40;3.03;;;;;;;;;;774156;181;714642;-67
2024/04/07 02:58:19;;;;;;;4.87;2.67;;;;;;;;;;767319;181;850452;-68
2024/04/07 03:00:44;;;;;;;3.40;2.17;;;;;;;;;;771370;180;714714;-67
2024/04/07 03:03:10;;;;;;;2.67;2.00;;;;;;;;;;773484;181;849790;-68
2024/04/07 03:05:39;;;;;;;5.40;3.30;;;;;;;;;;766872;181;816760;-67
2024/04/07 03:08:06;;;;;;;10.50;3.97;;;;;;;;;;764076;181;816490;-67
2024/04/07 03:10:32;;;;;;;6.07;3.90;;;;;;;;;;767726;181;803900;-68
2024/04/07 03:12:57;;;;;;;5.33;3.33;;;;;;;;;;765296;180;826649;-67
2024/04/07 03:15:23;;;;;;;4.17;2.90;;;;;;;;;;768808;180;717091;-68
2024/04/07 03:17:49;;;;;;;5.25;3.70;;;;;;;;;;765566;179;902598;-68
2024/04/07 03:20:15;;;;;;;5.17;2.83;;;;;;;;;;768641;181;1024035;-67
2024/04/07 03:22:41;;;;;;;3.67;2.50;;;;;;;;;;768115;181;924149;-68
2024/04/07 03:25:07;;;;;;;5.10;3.12;;;;;;;;;;765841;181;856586;-67
2024/04/07 03:27:32;;;;;;;10.63;3.20;;;;;;;;;;768125;181;917889;-67
2024/04/07 03:29:58;;;;;;;4.87;2.87;;;;;;;;;;762618;182;785238;-67
2024/04/07 03:32:24;;;;;;;5.20;3.30;;;;;;;;;;763395;182;808377;-68
2024/04/07 03:34:50;;;;;;;4.50;2.70;;;;;;;;;;766369;181;834166;-67
2024/04/07 03:37:16;;;;;;;5.63;3.90;;;;;;;;;;766804;181;827279;-67
2024/04/07 03:39:42;;;;;;;9.70;3.20;;;;;;;;;;763357;181;909173;-67
2024/04/07 03:42:07;;;;;;;3.80;2.70;;;;;;;;;;766489;181;815551;-67
2024/04/07 03:44:33;;;;;;;6.07;2.90;;;;;;;;;;762599;181;825054;-66
2024/04/07 03:46:59;;;;;;;4.17;2.97;;;;;;;;;;766345;182;923684;-67
2024/04/07 03:49:25;;;;;;;7.30;4.23;;;;;;;;;;766375;181;811005;-67
2024/04/07 03:51:51;;;;;;;4.10;2.67;;;;;;;;;;771735;181;715087;-67
2024/04/07 03:54:17;;;;;;;7.07;4.30;;;;;;;;;;767040;181;823826;-70
2024/04/07 03:56:42;;;;;;;4.30;2.40;;;;;;;;;;770210;181;712097;-68
2024/04/07 03:59:08;;;;;;;3.93;2.83;;;;;;;;;;770669;182;920631;-68
2024/04/07 04:01:35;;;;;;;7.60;4.40;;;;;;;;;;767541;180;813883;-68
2024/04/07 04:04:00;;;;;;;4.90;3.03;;;;;;;;;;765513;181;903113;-67
2024/04/07 04:06:26;;;;;;;4.13;2.80;;;;;;;;;;771203;181;919538;-67
2024/04/07 04:08:52;;;;;;;4.80;3.50;;;;;;;;;;769852;181;820165;-67
2024/04/07 04:11:17;;;;;;;4.90;2.50;;;;;;;;;;765468;181;814302;-68
2024/04/07 04:13:47;;;;;;;6.10;2.97;;;;;;;;;;761356;181;818461;-68
2024/04/07 04:16:09;;;;;;;4.77;2.87;;;;;;;;;;769921;181;813951;-67
2024/04/07 04:18:35;;;;;;;4.77;2.70;;;;;;;;;;764679;181;869534;-67
2024/04/07 04:21:01;;;;;;;4.97;3.03;;;;;;;;;;762736;179;927193;-67
2024/04/07 04:23:27;;;;;;;4.03;2.70;;;;;;;;;;771464;181;825803;-69
2024/04/07 04:25:52;;;;;;;6.20;3.40;;;;;;;;;;764729;181;900895;-68
2024/04/07 04:28:18;;;;;;;5.50;3.10;;;;;;;;;;767575;181;815890;-68
2024/04/07 04:30:50;;;;;;;8.90;3.60;;;;;;;;;;769732;180;815988;-67
2024/04/07 04:33:16;;;;;;;4.67;2.67;;;;;;;;;;763868;180;919129;-67
2024/04/07 04:35:42;;;;;;;6.00;3.10;;;;;;;;;;763813;181;919268;-68
2024/04/07 04:38:08;;;;;;;4.33;2.80;;;;;;;;;;763786;181;932987;-69
2024/04/07 04:40:33;;;;;;;3.87;3.07;;;;;;;;;;774855;181;818683;-68
2024/04/07 04:42:59;;;;;;;4.63;2.37;;;;;;;;;;765352;181;921709;-67
2024/04/07 04:45:25;;;;;;;6.68;3.62;;;;;;;;;;763341;180;820465;-66
2024/04/07 04:47:51;;;;;;;3.53;2.10;;;;;;;;;;770353;181;1023210;-66
2024/04/07 04:50:17;;;;;;;5.47;2.67;;;;;;;;;;765159;181;911472;-68
2024/04/07 04:52:43;;;;;;;5.50;2.87;;;;;;;;;;766095;181;815091;-67
2024/04/07 04:55:08;;;;;;;5.77;3.40;;;;;;;;;;766167;181;920315;-68
2024/04/07 04:57:35;;;;;;;6.03;3.50;;;;;;;;;;766652;180;918272;-65
2024/04/07 05:00:00;;;;;;;4.80;3.00;;;;;;;;;;767331;181;924153;-66
2024/04/07 05:02:26;;;;;;;8.20;3.23;;;;;;;;;;770346;181;816221;-68
2024/04/07 05:04:52;;;;;;;11.63;4.23;;;;;;;;;;765613;181;875669;-68
2024/04/07 05:07:18;;;;;;;6.83;4.03;;;;;;;;;;762968;181;929473;-67
2024/04/07 05:09:43;;;;;;;5.17;3.30;;;;;;;;;;762512;181;814419;-68
2024/04/07 05:12:09;;;;;;;5.73;3.07;;;;;;;;;;774639;180;780764;-68
2024/04/07 05:14:35;;;;;;;7.70;3.43;;;;;;;;;;770967;180;826432;-68
2024/04/07 05:17:01;;;;;;;5.67;3.50;;;;;;;;;;767727;180;778230;-68
2024/04/07 05:19:27;;;;;;;4.30;2.90;;;;;;;;;;767433;181;666665;-66
2024/04/07 05:21:53;;;;;;;6.40;3.57;;;;;;;;;;767294;181;811225;-66
2024/04/07 05:24:21;;;;;;;8.67;3.10;;;;;;;;;;770287;181;647186;-67
2024/04/07 05:26:44;;;;;;;7.40;4.33;;;;;;;;;;767210;181;879544;-68
2024/04/07 05:29:10;;;;;;;5.10;3.20;;;;;;;;;;768540;181;916308;-64
2024/04/07 05:31:36;;;;;;;4.20;3.33;;;;;;;;;;764259;179;847523;-65
2024/04/07 05:34:02;;;;;;;9.20;4.03;;;;;;;;;;770013;180;804419;-65
2024/04/07 05:36:28;;;;;;;6.27;3.37;;;;;;;;;;767057;181;766760;-65
2024/04/07 05:38:54;;;;;;;7.43;3.43;;;;;;;;;;765986;181;826920;-65
2024/04/07 05:41:20;;;;;;;6.00;2.90;;;;;;;;;;765292;180;866587;-65
2024/04/07 05:43:46;;;;;;;7.00;3.20;;;;;;;;;;765478;180;942551;-65
2024/04/07 05:46:11;;;;;;;5.80;3.30;;;;;;;;;;764858;181;714644;-65
2024/04/07 05:48:37;;;;;;;5.22;3.80;;;;;;;;;;763614;181;921234;-64
2024/04/07 05:51:03;;;;;;;6.30;3.20;;;;;;;;;;769914;181;838682;-64
2024/04/07 05:53:29;;;;;;;6.10;2.40;;;;;;;;;;768906;181;917951;-66
2024/04/07 05:55:55;;;;;;;6.87;3.72;;;;;;;;;;763946;181;914263;-66
2024/04/07 05:58:22;;;;;;;3.63;2.57;;;;;;;;;;767894;179;895000;-66
2024/04/07 06:00:47;;;;;;;4.97;3.60;;;;;;;;;;765045;181;920678;-66
2024/04/07 06:03:13;;;;;;;5.50;3.40;;;;;;;;;;764403;181;815928;-65
2024/04/07 06:05:39;;;;;;;7.40;4.60;;;;;;;;;;770721;181;918278;-66
2024/04/07 06:08:06;;;;;;;6.27;4.23;;;;;;;;;;766846;181;918180;-66
2024/04/07 06:10:33;;;;;;;6.67;3.67;;;;;;;;;;761236;181;920336;-67
2024/04/07 06:12:59;;;;;;;7.07;3.53;;;;;;;;;;766376;181;807987;-65
2024/04/07 06:15:25;;;;;;;6.17;3.93;;;;;;;;;;767594;181;918804;-66
2024/04/07 06:17:51;;;;;;;11.83;4.00;;;;;;;;;;764003;182;948324;-66
2024/04/07 06:20:17;;;;;;;6.80;3.63;;;;;;;;;;765625;181;756962;-66
2024/04/07 06:22:43;;;;;;;4.75;3.28;;;;;;;;;;770596;179;938192;-66
2024/04/07 06:25:09;;;;;;;7.17;3.43;;;;;;;;;;768946;180;815047;-66
2024/04/07 06:27:34;;;;;;;5.20;3.23;;;;;;;;;;767822;181;913793;-66
2024/04/07 06:30:02;;;;;;;6.43;3.50;;;;;;;;;;772618;181;697218;-65
2024/04/07 06:32:26;;;;;;;4.50;3.40;;;;;;;;;;767785;181;914582;-65
2024/04/07 06:34:52;;;;;;;6.60;4.60;;;;;;;;;;766081;180;869330;-65
2024/04/07 06:37:18;;;;;;;4.97;3.70;;;;;;;;;;763206;181;918331;-66
2024/04/07 06:39:43;;;;;;;4.77;3.70;;;;;;;;;;765401;181;826334;-66
2024/04/07 06:42:09;;;;;;;5.20;3.40;;;;;;;;;;762972;181;814039;-66
2024/04/07 06:44:36;;;;;;;7.57;4.57;;;;;;;;;;765531;181;913658;-67
2024/04/07 06:47:03;;;;;;;6.53;4.10;;;;;;;;;;768494;181;918706;-66
2024/04/07 06:49:29;;;;;;;5.00;4.10;;;;;;;;;;771074;181;704700;-66
2024/04/07 06:51:55;;;;;;;5.77;2.90;;;;;;;;;;766224;180;924797;-66
2024/04/07 06:54:21;;;;;;;4.60;3.23;;;;;;;;;;769184;180;809334;-66
2024/04/07 06:56:47;;;;;;;6.00;2.67;;;;;;;;;;768241;181;834913;-66
2024/04/07 06:59:12;;;;;;;10.43;3.60;;;;;;;;;;765234;180;772393;-66
2024/04/07 07:01:38;;;;;;;5.63;3.13;;;;;;;;;;769751;181;815562;-69
2024/04/07 07:04:04;;;;;;;4.80;2.40;;;;;;;;;;767037;181;743411;-65
2024/04/07 07:06:31;;;;;;;4.30;2.80;;;;;;;;;;761901;182;891800;-66
2024/04/07 07:08:56;;;;;;;5.70;3.23;;;;;;;;;;765711;181;803846;-67
2024/04/07 07:11:22;;;;;;;10.83;3.80;;;;;;;;;;773415;181;645308;-66
2024/04/07 07:13:48;;;;;;;6.33;2.80;;;;;;;;;;766739;181;913854;-66
2024/04/07 07:16:13;;;;;;;6.37;3.50;;;;;;;;;;763432;181;824775;-67
2024/04/07 07:18:39;;;;;;;6.80;3.10;;;;;;;;;;771730;180;634393;-66
2024/04/07 07:21:06;;;;;;;31.10;3.93;;;;;;;;;;771351;181;680705;-66
2024/04/07 07:23:31;;;;;;;12.03;3.03;;;;;;;;;;768339;181;817219;-66
2024/04/07 07:25:57;;;;;;;28.93;4.47;;;;;;;;;;770203;181;812988;-66
2024/04/07 07:28:23;;;;;;;16.23;2.97;;;;;;;;;;763015;181;734179;-66
2024/04/07 07:30:49;;;;;;;37.40;4.57;;;;;;;;;;762132;181;910614;-66
2024/04/07 07:33:14;;;;;;;11.77;2.97;;;;;;;;;;769040;181;815756;-65
2024/04/07 07:35:42;;;;;;;24.97;7.23;;;;;;;;;;766732;180;934662;-65
2024/04/07 07:38:07;;;;;;;13.03;2.97;;;;;;;;;;767510;181;813152;-66
2024/04/07 07:40:33;;;;;;;6.10;2.90;;;;;;;;;;765499;179;758207;-66
2024/04/07 07:42:58;;;;;;;11.10;3.23;;;;;;;;;;770855;181;809731;-65
2024/04/07 07:45:24;;;;;;;20.70;3.93;;;;;;;;;;767497;181;901489;-65
2024/04/07 07:47:52;;;;;;;7.20;2.80;;;;;;;;;;765390;180;917465;-66
2024/04/07 07:50:18;;;;;;;25.40;4.47;;;;;;;;;;768445;181;927252;-65
2024/04/07 07:52:44;;;;;;;5.03;2.40;;;;;;;;;;765490;181;821528;-65
2024/04/07 07:55:10;;;;;;;9.63;2.50;;;;;;;;;;768054;181;813729;-65
2024/04/07 07:57:35;;;;;;;5.03;2.73;;;;;;;;;;767545;181;917368;-65
2024/04/07 08:00:04;;;;;;;3.90;2.90;;;;;;;;;;768695;181;806547;-66
2024/04/07 08:02:27;;;;;;;11.38;3.28;;;;;;;;;;764415;181;819889;-66
2024/04/07 08:04:53;;;;;;;5.83;2.97;;;;;;;;;;768549;182;831497;-66
2024/04/07 08:07:19;;;;;;;5.28;2.45;;;;;;;;;;768272;181;921632;-64
2024/04/07 08:09:45;;;;;;;5.77;2.60;;;;;;;;;;766072;181;912423;-67
2024/04/07 08:12:12;;;;;;;10.27;3.33;;;;;;;;;;765401;181;819386;-65
2024/04/07 08:14:37;;;;;;;4.27;2.80;;;;;;;;;;770670;181;813937;-65
2024/04/07 08:17:04;;;;;;;5.33;3.10;;;;;;;;;;763401;181;916755;-66
2024/04/07 08:19:28;;;;;;;24.58;3.15;;;;;;;;;;768638;181;743493;-65
2024/04/07 08:21:54;;;;;;;10.00;4.07;;;;;;;;;;771778;181;931789;-66
2024/04/07 08:24:20;;;;;;;6.50;3.83;;;;;;;;;;764310;181;914936;-66
2024/04/07 08:26:46;;;;;;;5.40;3.70;;;;;;;;;;764341;181;878873;-66
2024/04/07 08:29:12;;;;;;;6.33;3.07;;;;;;;;;;771586;181;814333;-66
2024/04/07 08:31:37;;;;;;;8.20;3.33;;;;;;;;;;762563;181;1120343;-68
2024/04/07 08:34:03;;;;;;;7.10;3.13;;;;;;;;;;767389;181;713721;-69
2024/04/07 08:36:29;;;;;;;12.30;4.37;;;;;;;;;;765688;181;849410;-69
2024/04/07 08:38:55;;;;;;;5.50;3.10;;;;;;;;;;767609;181;890292;-68
2024/04/07 08:41:21;;;;;;;9.30;3.23;;;;;;;;;;768038;181;813891;-67
2024/04/07 08:43:48;;;;;;;5.72;3.00;;;;;;;;;;763827;181;904993;-67
2024/04/07 08:46:13;;;;;;;6.17;2.90;;;;;;;;;;775016;180;636139;-69
2024/04/07 08:48:41;;;;;;;7.97;3.23;;;;;;;;;;769916;181;765062;-68
2024/04/07 08:51:09;;;;;;;7.80;3.00;;;;;;;;;;768402;180;638892;-68
2024/04/07 08:53:35;;;;;;;6.53;2.70;;;;;;;;;;772827;181;684362;-69
2024/04/07 08:56:01;;;;;;;4.77;2.80;;;;;;;;;;764303;181;756003;-68
2024/04/07 08:58:27;;;;;;;5.33;2.90;;;;;;;;;;769629;181;627780;-68
2024/04/07 09:00:52;;;;;;;12.23;3.17;;;;;;;;;;768359;181;716546;-67
2024/04/07 09:03:18;;;;;;;22.33;3.60;;;;;;;;;;765597;180;677421;-68
2024/04/07 09:05:44;;;;;;;8.80;2.70;;;;;;;;;;766416;181;820438;-68
2024/04/07 09:08:10;;;;;;;5.00;2.37;;;;;;;;;;764296;180;809097;-69
2024/04/07 09:10:36;;;;;;;4.50;2.63;;;;;;;;;;770210;181;742440;-68
2024/04/07 09:13:02;;;;;;;13.80;4.57;;;;;;;;;;768708;181;701902;-68
2024/04/07 09:15:27;;;;;;;4.57;2.20;;;;;;;;;;765078;181;781108;-70
2024/04/07 09:17:53;;;;;;;5.03;2.50;;;;;;;;;;770360;181;795263;-69
2024/04/07 09:20:19;;;;;;;8.83;2.90;;;;;;;;;;766475;181;803376;-69
2024/04/07 09:22:46;;;;;;;39.47;6.20;;;;;;;;;;766256;181;910933;-69
2024/04/07 09:25:12;;;;;;;11.20;3.03;;;;;;;;;;770813;181;654835;-70
2024/04/07 09:27:38;;;;;;;13.73;4.40;;;;;;;;;;765576;181;911623;-68
2024/04/07 09:30:05;;;;;;;7.77;3.10;;;;;;;;;;766178;180;818003;-69
2024/04/07 09:32:30;;;;;;;9.73;3.53;;;;;;;;;;763385;181;917452;-65
2024/04/07 09:34:56;;;;;;;8.20;2.90;;;;;;;;;;772463;181;636459;-66
2024/04/07 09:37:22;;;;;;;6.87;3.13;;;;;;;;;;768563;181;626869;-66
2024/04/07 09:39:48;;;;;;;6.87;2.57;;;;;;;;;;767197;181;676616;-67
2024/04/07 09:42:14;;;;;;;10.83;4.17;;;;;;;;;;771408;181;631980;-66
2024/04/07 09:44:43;;;;;;;4.30;2.37;;;;;;;;;;767679;181;629998;-67
2024/04/07 09:47:07;;;;;;;4.03;2.40;;;;;;;;;;766663;182;643097;-66
2024/04/07 09:49:32;;;;;;;4.93;2.13;;;;;;;;;;772087;181;653884;-67
2024/04/07 09:51:59;;;;;;;9.20;2.83;;;;;;;;;;766327;181;646348;-67
2024/04/07 09:54:26;;;;;;;3.10;2.13;;;;;;;;;;766357;181;625886;-67
2024/04/07 09:56:52;;;;;;;6.13;2.43;;;;;;;;;;767469;181;683650;-66
2024/04/07 09:59:17;;;;;;;6.27;2.80;;;;;;;;;;775258;180;639813;-67
2024/04/07 10:01:43;;;;;;;3.70;2.57;;;;;;;;;;768130;180;817131;-64
2024/04/07 10:04:09;;;;;;;6.35;2.60;;;;;;;;;;767034;180;805529;-67
2024/04/07 10:06:35;;;;;;;5.53;2.77;;;;;;;;;;772171;180;809872;-66
2024/04/07 10:09:01;;;;;;;3.90;2.50;;;;;;;;;;766468;181;918794;-67
2024/04/07 10:11:27;;;;;;;5.47;2.67;;;;;;;;;;767948;180;682111;-65
2024/04/07 10:13:52;;;;;;;4.00;2.33;;;;;;;;;;768999;181;741108;-66
2024/04/07 10:16:18;;;;;;;3.60;2.30;;;;;;;;;;766858;181;712770;-66
2024/04/07 10:18:44;;;;;;;7.05;2.50;;;;;;;;;;765688;181;780756;-65
2024/04/07 10:21:10;;;;;;;5.07;2.90;;;;;;;;;;769725;180;745011;-65
2024/04/07 10:23:36;;;;;;;4.35;2.40;;;;;;;;;;768254;181;665310;-66
2024/04/07 10:26:03;;;;;;;7.37;2.33;;;;;;;;;;764844;181;779576;-66
2024/04/07 10:28:28;;;;;;;12.57;3.37;;;;;;;;;;765879;181;917839;-66
2024/04/07 10:30:58;;;;;;;7.40;2.63;;;;;;;;;;751452;184;847940;-67
2024/04/07 10:33:23;;;;;;;5.07;2.13;;;;;;;;;;746371;183;921716;-68
2024/04/07 10:35:52;;;;;;;9.43;2.63;;;;;;;;;;730798;189;814635;-65
2024/04/07 10:38:18;;;;;;;4.43;2.33;;;;;;;;;;749084;186;789440;-65
2024/04/07 10:40:43;;;;;;;13.63;2.70;;;;;;;;;;763617;181;916671;-65
2024/04/07 10:43:09;;;;;;;7.37;2.20;;;;;;;;;;764644;181;808550;-66
2024/04/07 10:45:35;;;;;;;6.83;3.17;;;;;;;;;;765558;181;875564;-65
2024/04/07 10:48:01;;;;;;;5.43;2.70;;;;;;;;;;765606;180;921074;-64
2024/04/07 10:50:27;;;;;;;3.20;1.90;;;;;;;;;;764962;181;896513;-65
2024/04/07 10:52:58;;;;;;;4.07;1.97;;;;;;;;;;766447;181;686990;-65
2024/04/07 10:55:23;;;;;;;4.20;2.50;;;;;;;;;;770320;181;758681;-64
2024/04/07 10:57:49;;;;;;;5.77;2.17;;;;;;;;;;767169;181;640789;-66
2024/04/07 11:00:15;;;;;;;6.43;2.80;;;;;;;;;;765950;181;746730;-66
2024/04/07 11:02:41;;;;;;;5.70;2.30;;;;;;;;;;768416;181;992683;-65
2024/04/07 11:05:07;;;;;;;3.60;2.37;;;;;;;;;;765740;181;818621;-65
2024/04/07 11:07:33;;;;;;;4.65;2.67;;;;;;;;;;766912;181;942924;-66
2024/04/07 11:09:59;;;;;;;4.70;2.23;;;;;;;;;;768355;181;776037;-67
2024/04/07 11:12:25;;;;;;;3.83;2.10;;;;;;;;;;771799;180;737253;-65
2024/04/07 11:14:51;;;;;;;5.27;2.10;;;;;;;;;;769085;180;631138;-65
2024/04/07 11:17:17;;;;;;;3.93;2.07;;;;;;;;;;768968;181;637036;-65
2024/04/07 11:20:24;;;;;;;3.93;2.80;;;;;;;;;;777983;169;807229;-66
2024/04/07 11:22:50;;;;;;;8.73;2.83;;;;;;;;;;770273;180;818831;-66
2024/04/07 11:25:16;;;;;;;3.43;1.97;;;;;;;;;;778781;180;721102;-68
2024/04/07 11:27:42;;;;;;;3.00;1.87;;;;;;;;;;770932;177;911046;-69
2024/04/07 11:30:08;;;;;;;5.50;2.33;;;;;;;;;;773884;177;909885;-69
2024/04/07 11:32:34;;;;;;;3.70;2.20;;;;;;;;;;777559;177;630744;-70
2024/04/07 11:35:00;;;;;;;7.10;3.00;;;;;;;;;;774190;180;622068;-71
2024/04/07 11:37:26;;;;;;;3.47;2.10;;;;;;;;;;775189;177;637548;-70
2024/04/07 11:39:52;;;;;;;4.90;2.10;;;;;;;;;;775183;177;813695;-70
2024/04/07 11:42:18;;;;;;;4.40;2.33;;;;;;;;;;780560;179;625124;-70
2024/04/07 11:44:44;;;;;;;10.43;2.23;;;;;;;;;;776794;177;625224;-70
2024/04/07 11:47:10;;;;;;;6.75;2.12;;;;;;;;;;768653;177;914140;-70
2024/04/07 11:49:36;;;;;;;16.63;2.80;;;;;;;;;;776322;177;823492;-69
2024/04/07 11:52:02;;;;;;;13.33;2.77;;;;;;;;;;773139;179;918608;-69
2024/04/07 11:54:28;;;;;;;16.40;2.70;;;;;;;;;;771408;177;930858;-69
2024/04/07 11:56:53;;;;;;;34.40;2.97;;;;;;;;;;777001;177;815982;-70
2024/04/07 11:59:19;;;;;;;5.87;2.60;;;;;;;;;;770356;178;771733;-70
2024/04/07 12:01:46;;;;;;;5.43;2.33;;;;;;;;;;770804;177;927126;-69
2024/04/07 12:04:12;;;;;;;5.07;1.83;;;;;;;;;;773428;177;830670;-69
2024/04/07 12:06:37;;;;;;;4.00;2.20;;;;;;;;;;776436;178;820934;-69
2024/04/07 12:09:07;;;;;;;4.37;2.53;;;;;;;;;;772189;177;809105;-69
2024/04/07 12:11:29;;;;;;;8.15;1.87;;;;;;;;;;772919;177;792588;-70
2024/04/07 12:13:55;;;;;;;13.93;2.57;;;;;;;;;;774508;177;820347;-70
2024/04/07 12:16:21;;;;;;;5.23;2.60;;;;;;;;;;770871;177;844967;-69
2024/04/07 12:18:47;;;;;;;4.25;1.73;;;;;;;;;;776247;177;640380;-70
2024/04/07 12:21:13;;;;;;;3.90;1.97;;;;;;;;;;779758;177;645881;-70
2024/04/07 12:23:38;;;;;;;4.37;1.70;;;;;;;;;;774823;177;625144;-70
2024/04/07 12:26:04;;;;;;;4.47;2.27;;;;;;;;;;773305;177;939751;-70
2024/04/07 12:28:30;;;;;;;3.60;1.80;;;;;;;;;;779564;177;631934;-70
2024/04/07 12:30:56;;;;;;;3.23;1.40;;;;;;;;;;778582;177;618955;-70
2024/04/07 12:33:22;;;;;;;3.00;1.80;;;;;;;;;;775400;177;665482;-70
2024/04/07 12:35:49;;;;;;;4.60;2.23;;;;;;;;;;777549;177;710135;-70
2024/04/07 12:38:14;;;;;;;3.63;1.70;;;;;;;;;;780474;179;614410;-70
2024/04/07 12:40:40;;;;;;;4.20;1.90;;;;;;;;;;774481;177;940210;-70
2024/04/07 12:43:06;;;;;;;7.53;1.77;;;;;;;;;;774384;177;927891;-70
2024/04/07 12:45:32;;;;;;;4.47;1.40;;;;;;;;;;779725;178;666490;-69
2024/04/07 12:47:57;;;;;;;3.20;1.50;;;;;;;;;;771477;180;748495;-69
2024/04/07 12:50:23;;;;;;;2.60;1.50;;;;;;;;;;770090;177;943929;-70
2024/04/07 12:52:50;;;;;;;4.53;1.40;;;;;;;;;;775889;177;919430;-70
2024/04/07 12:55:15;;;;;;;3.77;1.70;;;;;;;;;;774663;177;703692;-70
2024/04/07 12:57:41;;;;;;;2.53;1.30;;;;;;;;;;774897;177;729585;-70
2024/04/07 13:00:14;;;;;;;2.50;1.20;;;;;;;;;;774718;177;827807;-70
2024/04/07 13:02:33;;;;;;;2.50;1.20;;;;;;;;;;775963;177;817800;-69
2024/04/07 13:04:59;;;;;;;2.37;1.13;;;;;;;;;;770791;177;719838;-69
2024/04/07 13:07:25;;;;;;;3.67;1.80;;;;;;;;;;773187;177;1024403;-69
2024/04/07 13:09:51;;;;;;;4.70;1.33;;;;;;;;;;778220;177;821999;-69
2024/04/07 13:12:17;;;;;;;4.17;1.77;;;;;;;;;;772620;179;818901;-69
2024/04/07 13:14:43;;;;;;;7.90;2.20;;;;;;;;;;776235;177;694899;-69
2024/04/07 13:17:09;;;;;;;6.90;1.80;;;;;;;;;;777717;177;818002;-69
2024/04/07 13:19:35;;;;;;;7.33;2.17;;;;;;;;;;774231;177;817638;-69
2024/04/07 13:22:00;;;;;;;12.60;1.80;;;;;;;;;;773481;177;802556;-69
2024/04/07 13:24:26;;;;;;;3.43;1.60;;;;;;;;;;775365;177;917498;-68
2024/04/07 13:26:52;;;;;;;32.87;4.20;;;;;;;;;;766913;177;897670;-69
2024/04/07 13:29:18;;;;;;;6.90;1.73;;;;;;;;;;770873;177;920311;-69
2024/04/07 13:31:44;;;;;;;2.90;1.30;;;;;;;;;;773814;177;815453;-69
2024/04/07 13:34:10;;;;;;;3.80;1.50;;;;;;;;;;767976;180;906134;-69
2024/04/07 13:36:36;;;;;;;3.00;1.53;;;;;;;;;;773147;177;636129;-69
2024/04/07 13:39:03;;;;;;;2.90;1.40;;;;;;;;;;768834;177;916600;-69
2024/04/07 13:41:27;;;;;;;5.33;1.50;;;;;;;;;;774819;178;870762;-68
2024/04/07 13:43:53;;;;;;;5.73;1.70;;;;;;;;;;775515;177;1104114;-69
2024/04/07 13:46:19;;;;;;;4.93;1.50;;;;;;;;;;778828;177;630638;-70
2024/04/07 13:48:45;;;;;;;2.63;1.33;;;;;;;;;;779588;177;834237;-69
2024/04/07 13:51:11;;;;;;;2.23;1.20;;;;;;;;;;773816;177;756283;-68
2024/04/07 13:53:36;;;;;;;4.67;1.67;;;;;;;;;;776079;177;658569;-68
2024/04/07 13:56:02;;;;;;;22.97;3.40;;;;;;;;;;779543;177;674098;-70
2024/04/07 13:58:28;;;;;;;3.17;1.43;;;;;;;;;;775191;180;823945;-68
2024/04/07 14:00:54;;;;;;;2.60;1.40;;;;;;;;;;769856;177;917254;-68
2024/04/07 14:03:20;;;;;;;3.13;1.33;;;;;;;;;;774681;177;631843;-69
2024/04/07 14:05:46;;;;;;;7.30;1.57;;;;;;;;;;776686;177;928636;-69
2024/04/07 14:08:12;;;;;;;4.30;1.70;;;;;;;;;;777673;177;637104;-69
2024/04/07 14:10:38;;;;;;;3.23;1.60;;;;;;;;;;777173;177;625124;-69
2024/04/07 14:13:04;;;;;;;2.67;1.40;;;;;;;;;;779709;177;618870;-69
2024/04/07 14:15:30;;;;;;;2.80;1.40;;;;;;;;;;776757;177;647169;-69
2024/04/07 14:17:55;;;;;;;3.20;1.70;;;;;;;;;;775358;177;629832;-69
2024/04/07 14:20:21;;;;;;;6.40;2.20;;;;;;;;;;778621;180;634582;-69
2024/04/07 14:22:47;;;;;;;5.03;1.60;;;;;;;;;;774652;177;629834;-69